Time;durP1;ratioP1;P1;durP2;ratioP2;P2;SDS_P1;SDS_P2;PMS_P1;PMS_P2;Temp;Humidity;BMP_temperature;BMP_pressure;BME280_temperature;BME280_humidity;BME280_pressure;Samples;Min_cycle;Max_cycle;Signal;HPM_P1;HPM_P2
2022/12/31 00:00:35;;;;;;;;;;;;;;;6.43;100.00;99137.50;5050914;28;20383;-86
2022/12/31 00:03:01;;;;;;;;;;;;;;;6.41;100.00;99134.91;5049876;28;19924;-88
2022/12/31 00:05:28;;;;;;;;;;;;;;;6.41;100.00;99140.19;5028791;28;20027;-90
2022/12/31 00:08:03;;;;;;;;;;;;;;;6.38;100.00;99134.19;5033410;28;20023;-92
2022/12/31 00:10:31;;;;;;;;;;;;;;;6.38;100.00;99142.91;5033389;28;19921;-85
2022/12/31 00:12:57;;;;;;;;;;;;;;;6.40;100.00;99135.84;5022859;28;20398;-85
2022/12/31 00:15:22;;;;;;;;;;;;;;;6.47;100.00;99141.75;5018513;28;19921;-84
2022/12/31 00:17:50;;;;;;;;;;;;;;;6.48;100.00;99156.63;5031338;28;19920;-90
2022/12/31 00:20:16;;;;;;;;;;;;;;;6.51;100.00;99156.50;5029578;28;20477;-87
2022/12/31 00:22:41;;;;;;;;;;;;;;;6.46;100.00;99155.81;5030457;28;19921;-84
2022/12/31 00:25:06;;;;;;;;;;;;;;;6.47;100.00;99154.91;5050108;28;19932;-88
2022/12/31 00:27:32;;;;;;;;;;;;;;;6.47;100.00;99162.81;5051284;28;19974;-87
2022/12/31 00:29:57;;;;;;;;;;;;;;;6.43;100.00;99171.72;5021057;28;19932;-86
2022/12/31 00:32:22;;;;;;;;;;;;;;;6.45;100.00;99173.38;5020905;28;20297;-88
2022/12/31 00:34:48;;;;;;;;;;;;;;;6.40;100.00;99175.31;5052050;28;19927;-87
2022/12/31 00:37:13;;;;;;;;;;;;;;;6.40;100.00;99153.38;5034005;28;19928;-89
2022/12/31 00:39:38;;;;;;;;;;;;;;;6.45;100.00;99169.91;5049174;28;19948;-84
2022/12/31 00:42:03;;;;;;;;;;;;;;;6.40;100.00;99185.84;5042916;28;19922;-87
2022/12/31 00:44:29;;;;;;;;;;;;;;;6.38;100.00;99186.81;5052641;28;20368;-80
2022/12/31 00:46:54;;;;;;;;;;;;;;;6.43;100.00;99187.50;5052728;28;20011;-85
2022/12/31 00:49:19;;;;;;;;;;;;;;;6.36;100.00;99190.34;5047620;28;19928;-82
2022/12/31 00:51:45;;;;;;;;;;;;;;;6.31;100.00;99183.53;5032664;28;20483;-85
2022/12/31 00:54:10;;;;;;;;;;;;;;;6.31;100.00;99188.81;5020357;28;19921;-87
2022/12/31 00:56:36;;;;;;;;;;;;;;;6.32;100.00;99196.63;5040086;28;19925;-84
2022/12/31 00:59:01;;;;;;;;;;;;;;;6.40;100.00;99192.88;5038938;28;20012;-84
2022/12/31 01:01:28;;;;;;;;;;;;;;;6.41;100.00;99194.59;5040568;28;19921;-86
2022/12/31 01:03:55;;;;;;;;;;;;;;;6.43;100.00;99195.38;5035668;28;20011;-83
2022/12/31 01:06:20;;;;;;;;;;;;;;;6.39;100.00;99209.59;5030714;28;20457;-83
2022/12/31 01:08:49;;;;;;;;;;;;;;;6.42;100.00;99204.22;5036966;28;20011;-92
2022/12/31 01:11:21;;;;;;;;;;;;;;;6.42;100.00;99205.06;5035638;28;20034;-83
2022/12/31 01:13:53;;;;;;;;;;;;;;;6.38;100.00;99208.72;5043879;28;19998;-83
2022/12/31 01:16:21;;;;;;;;;;;;;;;6.44;100.00;99213.75;5030056;28;19928;-87
2022/12/31 01:18:46;;;;;;;;;;;;;;;6.31;100.00;99223.84;5052139;28;20012;-85
2022/12/31 01:21:12;;;;;;;;;;;;;;;6.27;100.00;99235.41;5032500;28;20400;-84
2022/12/31 01:23:40;;;;;;;;;;;;;;;6.23;100.00;99228.53;5023999;28;19921;-88
2022/12/31 02:28:29;;;;;;;;;;;;;;;6.05;100.00;99271.22;5559261;23;19968;-84
2022/12/31 02:30:59;;;;;;;;;;;;;;;6.18;100.00;99275.19;5072877;28;19959;-84
2022/12/31 02:33:48;;;;;;;;;;;;;;;6.08;100.00;99271.13;5054731;28;19962;-84
2022/12/31 02:36:22;;;;;;;;;;;;;;;6.13;100.00;99277.13;5072547;28;19924;-85
2022/12/31 02:38:48;;;;;;;;;;;;;;;6.03;100.00;99268.66;5072789;28;19999;-82
2022/12/31 02:41:48;;;;;;;;;;;;;;;6.00;100.00;99261.72;5054763;28;19917;-83
2022/12/31 02:44:00;;;;;;;;;;;;;;;6.08;100.00;99273.75;5071102;28;19920;-83
2022/12/31 02:46:32;;;;;;;;;;;;;;;6.08;100.00;99273.75;5072648;28;20393;-84
2022/12/31 02:49:14;;;;;;;;;;;;;;;6.08;100.00;99266.72;5054660;28;19931;-83
2022/12/31 02:52:05;;;;;;;;;;;;;;;6.12;100.00;99256.97;5072636;28;20274;-86
2022/12/31 02:54:39;;;;;;;;;;;;;;;6.11;100.00;99263.13;5072562;28;19916;-82
2022/12/31 02:57:09;;;;;;;;;;;;;;;6.06;100.00;99275.56;5053238;28;19922;-84
2022/12/31 03:02:34;;;;;;;;;;;;;;;6.14;100.00;99268.28;5072521;28;20573;-82
2022/12/31 03:05:00;;;;;;;;;;;;;;;6.13;100.00;99272.69;5072387;28;19917;-83
2022/12/31 03:07:27;;;;;;;;;;;;;;;6.12;100.00;99278.00;5072383;28;19942;-84
2022/12/31 03:09:52;;;;;;;;;;;;;;;6.14;100.00;99277.06;5056052;28;19912;-83
2022/12/31 03:15:05;;;;;;;;;;;;;;;6.09;100.00;99268.44;5075989;28;19919;-86
2022/12/31 03:17:33;;;;;;;;;;;;;;;6.15;100.00;99278.75;5075805;28;19923;-85
2022/12/31 03:22:42;;;;;;;;;;;;;;;5.99;100.00;99267.88;5076142;28;19962;-88
2022/12/31 03:27:54;;;;;;;;;;;;;;;5.97;100.00;99298.63;5074925;28;19983;-87
2022/12/31 03:30:23;;;;;;;;;;;;;;;5.93;100.00;99299.59;5075577;28;19938;-88
2022/12/31 03:32:49;;;;;;;;;;;;;;;5.97;100.00;99301.25;5075519;28;19917;-88
2022/12/31 03:35:19;;;;;;;;;;;;;;;5.93;100.00;99281.19;5075640;28;20007;-90
2022/12/31 03:37:47;;;;;;;;;;;;;;;5.91;100.00;99293.53;5057460;28;20359;-89
2022/12/31 03:40:14;;;;;;;;;;;;;;;5.92;100.00;99300.53;5075487;28;19920;-89
2022/12/31 03:42:39;;;;;;;;;;;;;;;5.90;100.00;99275.16;5074120;28;20454;-89
2022/12/31 03:45:05;;;;;;;;;;;;;;;5.98;100.00;99294.22;5057305;28;19999;-89
2022/12/31 03:47:30;;;;;;;;;;;;;;;5.94;100.00;99303.09;5075201;28;19916;-88
2022/12/31 03:49:55;;;;;;;;;;;;;;;5.96;100.00;99291.66;5075403;28;19966;-89
2022/12/31 03:52:20;;;;;;;;;;;;;;;5.93;100.00;99294.34;5057267;28;20252;-88
2022/12/31 03:54:46;;;;;;;;;;;;;;;5.92;100.00;99295.25;5075110;28;19927;-89
2022/12/31 03:57:11;;;;;;;;;;;;;;;5.89;100.00;99298.00;5073795;28;19917;-88
2022/12/31 03:59:37;;;;;;;;;;;;;;;5.85;100.00;99308.66;5057016;28;20345;-89
2022/12/31 04:02:02;;;;;;;;;;;;;;;5.80;100.00;99311.41;5074985;28;19943;-90
2022/12/31 04:04:27;;;;;;;;;;;;;;;5.80;100.00;99321.94;5074910;28;19927;-90
2022/12/31 04:06:53;;;;;;;;;;;;;;;5.79;100.00;99315.81;5057088;28;19916;-90
2022/12/31 04:09:18;;;;;;;;;;;;;;;5.80;100.00;99317.53;5074973;28;19920;-90
2022/12/31 04:11:43;;;;;;;;;;;;;;;5.80;100.00;99316.69;5074885;28;19924;-90
2022/12/31 04:14:10;;;;;;;;;;;;;;;5.83;100.00;99317.44;5055524;28;20419;-86
2022/12/31 04:16:45;;;;;;;;;;;;;;;5.83;100.00;99311.31;5074635;28;19940;-89
2022/12/31 04:19:11;;;;;;;;;;;;;;;5.81;100.00;99318.41;5075380;28;20387;-88
2022/12/31 04:21:36;;;;;;;;;;;;;;;5.80;100.00;99316.69;5057291;28;19943;-88
2022/12/31 04:24:02;;;;;;;;;;;;;;;5.86;100.00;99313.84;5056899;28;20270;-91
